sensor_id;sensor_type;location;lat;lon;timestamp;temperature;humidity
6270;DHT22;3168;51.684;6.954;2022-11-09T00:01:21;14.40;10.10
6270;DHT22;3168;51.684;6.954;2022-11-09T00:03:47;14.50;9.80
6270;DHT22;3168;51.684;6.954;2022-11-09T00:06:13;14.50;9.70
6270;DHT22;3168;51.684;6.954;2022-11-09T00:08:39;14.60;9.20
6270;DHT22;3168;51.684;6.954;2022-11-09T00:11:05;14.50;9.70
6270;DHT22;3168;51.684;6.954;2022-11-09T00:13:30;14.50;8.90
6270;DHT22;3168;51.684;6.954;2022-11-09T00:15:58;14.50;9.60
6270;DHT22;3168;51.684;6.954;2022-11-09T00:18:23;14.50;10.50
6270;DHT22;3168;51.684;6.954;2022-11-09T00:20:49;14.60;10.50
6270;DHT22;3168;51.684;6.954;2022-11-09T00:23:15;14.40;11.50
6270;DHT22;3168;51.684;6.954;2022-11-09T00:25:41;14.40;12.60
6270;DHT22;3168;51.684;6.954;2022-11-09T00:28:06;14.40;13.10
6270;DHT22;3168;51.684;6.954;2022-11-09T00:30:32;14.30;14.60
6270;DHT22;3168;51.684;6.954;2022-11-09T00:32:58;14.30;16.20
6270;DHT22;3168;51.684;6.954;2022-11-09T00:35:24;14.30;16.10
6270;DHT22;3168;51.684;6.954;2022-11-09T00:37:50;14.20;17.90
6270;DHT22;3168;51.684;6.954;2022-11-09T00:40:16;14.20;16.80
6270;DHT22;3168;51.684;6.954;2022-11-09T00:42:42;14.20;16.60
6270;DHT22;3168;51.684;6.954;2022-11-09T00:45:08;14.20;18.20
6270;DHT22;3168;51.684;6.954;2022-11-09T00:47:34;14.10;19.20
6270;DHT22;3168;51.684;6.954;2022-11-09T00:50:00;14.10;20.00
6270;DHT22;3168;51.684;6.954;2022-11-09T00:52:26;14.00;19.90
6270;DHT22;3168;51.684;6.954;2022-11-09T00:54:51;14.20;18.60
6270;DHT22;3168;51.684;6.954;2022-11-09T00:57:17;14.20;18.80
6270;DHT22;3168;51.684;6.954;2022-11-09T00:59:43;14.20;19.50
6270;DHT22;3168;51.684;6.954;2022-11-09T01:02:09;14.20;18.70
6270;DHT22;3168;51.684;6.954;2022-11-09T01:04:35;14.10;19.70
6270;DHT22;3168;51.684;6.954;2022-11-09T01:07:00;14.10;20.20
6270;DHT22;3168;51.684;6.954;2022-11-09T01:09:27;14.00;20.80
6270;DHT22;3168;51.684;6.954;2022-11-09T01:11:53;14.00;20.90
6270;DHT22;3168;51.684;6.954;2022-11-09T01:14:19;13.90;22.50
6270;DHT22;3168;51.684;6.954;2022-11-09T01:16:44;13.90;23.80
6270;DHT22;3168;51.684;6.954;2022-11-09T01:19:10;13.90;23.80
6270;DHT22;3168;51.684;6.954;2022-11-09T01:21:36;13.80;24.40
6270;DHT22;3168;51.684;6.954;2022-11-09T01:24:03;13.80;24.60
6270;DHT22;3168;51.684;6.954;2022-11-09T01:26:29;13.90;24.60
6270;DHT22;3168;51.684;6.954;2022-11-09T01:28:55;13.80;24.70
6270;DHT22;3168;51.684;6.954;2022-11-09T01:31:20;13.80;24.90
6270;DHT22;3168;51.684;6.954;2022-11-09T01:33:46;13.80;24.40
6270;DHT22;3168;51.684;6.954;2022-11-09T01:36:15;13.80;25.20
6270;DHT22;3168;51.684;6.954;2022-11-09T01:38:40;13.70;26.20
6270;DHT22;3168;51.684;6.954;2022-11-09T01:41:07;13.70;27.40
6270;DHT22;3168;51.684;6.954;2022-11-09T01:43:33;13.70;27.50
6270;DHT22;3168;51.684;6.954;2022-11-09T01:46:04;13.70;27.40
6270;DHT22;3168;51.684;6.954;2022-11-09T01:51:14;13.80;25.30
6270;DHT22;3168;51.684;6.954;2022-11-09T01:53:38;13.80;25.20
6270;DHT22;3168;51.684;6.954;2022-11-09T01:56:03;13.80;24.50
6270;DHT22;3168;51.684;6.954;2022-11-09T01:58:32;13.80;24.40
6270;DHT22;3168;51.684;6.954;2022-11-09T02:00:56;13.80;24.60
6270;DHT22;3168;51.684;6.954;2022-11-09T02:03:23;13.90;23.80
6270;DHT22;3168;51.684;6.954;2022-11-09T02:05:47;13.90;22.70
6270;DHT22;3168;51.684;6.954;2022-11-09T02:08:14;13.90;21.80
6270;DHT22;3168;51.684;6.954;2022-11-09T02:11:04;13.90;21.90
6270;DHT22;3168;51.684;6.954;2022-11-09T02:13:31;13.90;19.90
6270;DHT22;3168;51.684;6.954;2022-11-09T02:15:57;13.80;21.10
6270;DHT22;3168;51.684;6.954;2022-11-09T02:18:23;13.80;21.30
6270;DHT22;3168;51.684;6.954;2022-11-09T02:20:50;13.80;20.70
6270;DHT22;3168;51.684;6.954;2022-11-09T02:23:15;13.70;22.30
6270;DHT22;3168;51.684;6.954;2022-11-09T02:25:42;13.70;23.50
6270;DHT22;3168;51.684;6.954;2022-11-09T02:28:07;13.60;23.50
6270;DHT22;3168;51.684;6.954;2022-11-09T02:30:33;13.60;23.50
6270;DHT22;3168;51.684;6.954;2022-11-09T02:32:59;13.60;22.10
6270;DHT22;3168;51.684;6.954;2022-11-09T02:35:24;13.70;20.60
6270;DHT22;3168;51.684;6.954;2022-11-09T02:37:50;13.70;20.50
6270;DHT22;3168;51.684;6.954;2022-11-09T02:40:19;13.50;21.30
6270;DHT22;3168;51.684;6.954;2022-11-09T02:42:43;13.60;21.40
6270;DHT22;3168;51.684;6.954;2022-11-09T02:45:09;13.60;19.40
6270;DHT22;3168;51.684;6.954;2022-11-09T02:47:35;13.60;18.70
6270;DHT22;3168;51.684;6.954;2022-11-09T02:50:01;13.60;17.70
6270;DHT22;3168;51.684;6.954;2022-11-09T02:52:27;13.70;15.70
6270;DHT22;3168;51.684;6.954;2022-11-09T02:54:53;13.60;15.70
6270;DHT22;3168;51.684;6.954;2022-11-09T02:57:18;13.60;18.40
6270;DHT22;3168;51.684;6.954;2022-11-09T02:59:44;13.60;17.30
6270;DHT22;3168;51.684;6.954;2022-11-09T03:02:10;13.60;15.70
6270;DHT22;3168;51.684;6.954;2022-11-09T03:04:36;13.60;15.70
6270;DHT22;3168;51.684;6.954;2022-11-09T03:07:02;13.50;15.60
6270;DHT22;3168;51.684;6.954;2022-11-09T03:09:28;13.60;15.70
6270;DHT22;3168;51.684;6.954;2022-11-09T03:11:54;13.60;14.50
6270;DHT22;3168;51.684;6.954;2022-11-09T03:14:21;13.70;13.30
6270;DHT22;3168;51.684;6.954;2022-11-09T03:16:46;13.70;13.30
6270;DHT22;3168;51.684;6.954;2022-11-09T03:19:12;13.70;12.00
6270;DHT22;3168;51.684;6.954;2022-11-09T03:21:38;13.60;12.70
6270;DHT22;3168;51.684;6.954;2022-11-09T03:24:04;13.60;13.20
6270;DHT22;3168;51.684;6.954;2022-11-09T03:26:30;13.80;10.40
6270;DHT22;3168;51.684;6.954;2022-11-09T03:28:56;13.80;7.70
6270;DHT22;3168;51.684;6.954;2022-11-09T03:31:22;13.80;7.60
6270;DHT22;3168;51.684;6.954;2022-11-09T03:33:48;13.80;6.90
6270;DHT22;3168;51.684;6.954;2022-11-09T03:36:13;13.90;4.90
6270;DHT22;3168;51.684;6.954;2022-11-09T03:38:40;13.80;5.20
6270;DHT22;3168;51.684;6.954;2022-11-09T03:41:06;13.70;5.10
6270;DHT22;3168;51.684;6.954;2022-11-09T03:43:32;13.90;2.80
6270;DHT22;3168;51.684;6.954;2022-11-09T03:45:57;13.90;2.60
6270;DHT22;3168;51.684;6.954;2022-11-09T03:48:23;13.90;1.50
6270;DHT22;3168;51.684;6.954;2022-11-09T03:50:49;13.90;1.30
6270;DHT22;3168;51.684;6.954;2022-11-09T03:53:15;13.90;1.00
6270;DHT22;3168;51.684;6.954;2022-11-09T03:55:41;13.80;2.50
6270;DHT22;3168;51.684;6.954;2022-11-09T03:58:08;13.80;2.90
6270;DHT22;3168;51.684;6.954;2022-11-09T04:00:33;13.80;2.10
6270;DHT22;3168;51.684;6.954;2022-11-09T04:02:58;13.90;1.20
6270;DHT22;3168;51.684;6.954;2022-11-09T04:05:24;13.90;1.20
6270;DHT22;3168;51.684;6.954;2022-11-09T04:07:53;13.90;1.00
6270;DHT22;3168;51.684;6.954;2022-11-09T04:10:18;13.90;1.00
6270;DHT22;3168;51.684;6.954;2022-11-09T04:12:44;14.00;1.00
6270;DHT22;3168;51.684;6.954;2022-11-09T04:15:10;14.00;1.00
6270;DHT22;3168;51.684;6.954;2022-11-09T04:17:35;14.00;1.00
6270;DHT22;3168;51.684;6.954;2022-11-09T04:20:01;13.80;1.00
6270;DHT22;3168;51.684;6.954;2022-11-09T04:22:27;13.90;1.60
6270;DHT22;3168;51.684;6.954;2022-11-09T04:24:53;14.00;1.00
6270;DHT22;3168;51.684;6.954;2022-11-09T04:27:19;14.00;1.00
6270;DHT22;3168;51.684;6.954;2022-11-09T04:29:44;14.10;1.00
6270;DHT22;3168;51.684;6.954;2022-11-09T04:32:10;14.10;1.00
6270;DHT22;3168;51.684;6.954;2022-11-09T04:34:36;14.10;1.00
6270;DHT22;3168;51.684;6.954;2022-11-09T04:37:02;14.10;1.00
6270;DHT22;3168;51.684;6.954;2022-11-09T04:39:28;14.10;1.00
6270;DHT22;3168;51.684;6.954;2022-11-09T04:41:54;14.20;1.00
6270;DHT22;3168;51.684;6.954;2022-11-09T04:44:20;14.20;1.00
6270;DHT22;3168;51.684;6.954;2022-11-09T04:46:46;14.20;1.00
6270;DHT22;3168;51.684;6.954;2022-11-09T04:49:12;14.20;1.00
6270;DHT22;3168;51.684;6.954;2022-11-09T04:51:37;14.20;1.00
6270;DHT22;3168;51.684;6.954;2022-11-09T04:54:03;14.20;1.00
6270;DHT22;3168;51.684;6.954;2022-11-09T04:56:29;14.30;1.00
6270;DHT22;3168;51.684;6.954;2022-11-09T04:58:55;14.30;4.30
6270;DHT22;3168;51.684;6.954;2022-11-09T05:01:21;14.20;11.90
6270;DHT22;3168;51.684;6.954;2022-11-09T05:03:47;14.10;16.00
6270;DHT22;3168;51.684;6.954;2022-11-09T05:06:13;13.90;21.70
6270;DHT22;3168;51.684;6.954;2022-11-09T05:08:44;13.80;27.60
6270;DHT22;3168;51.684;6.954;2022-11-09T05:11:10;13.70;27.90
6270;DHT22;3168;51.684;6.954;2022-11-09T05:13:36;13.70;28.10
6270;DHT22;3168;51.684;6.954;2022-11-09T05:16:02;13.70;31.60
6270;DHT22;3168;51.684;6.954;2022-11-09T05:18:28;13.60;31.40
6270;DHT22;3168;51.684;6.954;2022-11-09T05:20:57;13.70;32.00
6270;DHT22;3168;51.684;6.954;2022-11-09T05:23:19;13.60;32.10
6270;DHT22;3168;51.684;6.954;2022-11-09T05:25:51;13.60;31.90
6270;DHT22;3168;51.684;6.954;2022-11-09T05:28:17;13.60;32.60
6270;DHT22;3168;51.684;6.954;2022-11-09T05:30:43;13.60;36.30
6270;DHT22;3168;51.684;6.954;2022-11-09T05:33:09;13.60;34.50
6270;DHT22;3168;51.684;6.954;2022-11-09T05:35:35;13.60;33.10
6270;DHT22;3168;51.684;6.954;2022-11-09T05:38:01;13.60;34.50
6270;DHT22;3168;51.684;6.954;2022-11-09T05:40:27;13.50;33.00
6270;DHT22;3168;51.684;6.954;2022-11-09T05:42:53;13.50;32.80
6270;DHT22;3168;51.684;6.954;2022-11-09T05:45:19;13.60;31.20
6270;DHT22;3168;51.684;6.954;2022-11-09T05:47:45;13.50;31.80
6270;DHT22;3168;51.684;6.954;2022-11-09T05:50:12;13.60;28.80
6270;DHT22;3168;51.684;6.954;2022-11-09T05:52:37;13.60;28.90
6270;DHT22;3168;51.684;6.954;2022-11-09T05:55:04;13.50;27.40
6270;DHT22;3168;51.684;6.954;2022-11-09T05:57:30;13.50;27.60
6270;DHT22;3168;51.684;6.954;2022-11-09T05:59:55;13.50;27.30
6270;DHT22;3168;51.684;6.954;2022-11-09T06:02:21;13.50;27.40
6270;DHT22;3168;51.684;6.954;2022-11-09T06:04:47;13.50;27.50
6270;DHT22;3168;51.684;6.954;2022-11-09T06:07:13;13.40;27.70
6270;DHT22;3168;51.684;6.954;2022-11-09T06:09:39;13.50;28.00
6270;DHT22;3168;51.684;6.954;2022-11-09T06:12:05;13.40;28.40
6270;DHT22;3168;51.684;6.954;2022-11-09T06:14:31;13.30;27.90
6270;DHT22;3168;51.684;6.954;2022-11-09T06:16:57;13.30;28.00
6270;DHT22;3168;51.684;6.954;2022-11-09T06:19:23;13.30;29.20
6270;DHT22;3168;51.684;6.954;2022-11-09T06:21:48;13.30;30.00
6270;DHT22;3168;51.684;6.954;2022-11-09T06:24:14;13.30;31.10
6270;DHT22;3168;51.684;6.954;2022-11-09T06:26:40;13.30;29.90
6270;DHT22;3168;51.684;6.954;2022-11-09T06:29:06;13.20;30.30
6270;DHT22;3168;51.684;6.954;2022-11-09T06:31:32;13.10;32.10
6270;DHT22;3168;51.684;6.954;2022-11-09T06:33:57;13.10;35.60
6270;DHT22;3168;51.684;6.954;2022-11-09T06:36:23;13.00;35.80
6270;DHT22;3168;51.684;6.954;2022-11-09T06:38:50;13.00;37.40
6270;DHT22;3168;51.684;6.954;2022-11-09T06:41:16;13.00;36.50
6270;DHT22;3168;51.684;6.954;2022-11-09T06:43:42;13.00;37.80
6270;DHT22;3168;51.684;6.954;2022-11-09T06:46:08;12.90;40.30
6270;DHT22;3168;51.684;6.954;2022-11-09T06:48:33;12.90;41.70
6270;DHT22;3168;51.684;6.954;2022-11-09T06:51:00;12.90;42.70
6270;DHT22;3168;51.684;6.954;2022-11-09T06:53:25;12.90;42.70
6270;DHT22;3168;51.684;6.954;2022-11-09T06:55:51;12.80;45.10
6270;DHT22;3168;51.684;6.954;2022-11-09T06:58:17;12.80;45.90
6270;DHT22;3168;51.684;6.954;2022-11-09T07:00:43;12.70;48.90
6270;DHT22;3168;51.684;6.954;2022-11-09T07:03:12;12.70;50.60
6270;DHT22;3168;51.684;6.954;2022-11-09T07:05:37;12.60;52.50
6270;DHT22;3168;51.684;6.954;2022-11-09T07:08:03;12.60;54.10
6270;DHT22;3168;51.684;6.954;2022-11-09T07:10:28;12.50;54.00
6270;DHT22;3168;51.684;6.954;2022-11-09T07:12:55;12.50;55.80
6270;DHT22;3168;51.684;6.954;2022-11-09T07:15:20;12.50;58.10
6270;DHT22;3168;51.684;6.954;2022-11-09T07:17:46;12.50;58.50
6270;DHT22;3168;51.684;6.954;2022-11-09T07:20:13;12.40;60.50
6270;DHT22;3168;51.684;6.954;2022-11-09T07:22:39;12.40;60.60
6270;DHT22;3168;51.684;6.954;2022-11-09T07:25:06;12.50;62.10
6270;DHT22;3168;51.684;6.954;2022-11-09T07:27:32;12.50;61.90
6270;DHT22;3168;51.684;6.954;2022-11-09T07:29:58;12.60;59.20
6270;DHT22;3168;51.684;6.954;2022-11-09T07:32:24;12.60;57.10
6270;DHT22;3168;51.684;6.954;2022-11-09T07:34:49;12.60;56.20
6270;DHT22;3168;51.684;6.954;2022-11-09T07:37:15;12.70;54.10
6270;DHT22;3168;51.684;6.954;2022-11-09T07:39:41;12.70;51.00
6270;DHT22;3168;51.684;6.954;2022-11-09T07:42:07;12.70;50.40
6270;DHT22;3168;51.684;6.954;2022-11-09T07:44:33;12.80;46.70
6270;DHT22;3168;51.684;6.954;2022-11-09T07:46:59;12.80;46.80
6270;DHT22;3168;51.684;6.954;2022-11-09T07:49:25;12.90;45.20
6270;DHT22;3168;51.684;6.954;2022-11-09T07:51:51;12.90;44.60
6270;DHT22;3168;51.684;6.954;2022-11-09T07:54:17;12.90;45.20
6270;DHT22;3168;51.684;6.954;2022-11-09T07:56:42;12.80;46.10
6270;DHT22;3168;51.684;6.954;2022-11-09T07:59:08;12.90;46.80
6270;DHT22;3168;51.684;6.954;2022-11-09T08:01:34;12.90;45.40
6270;DHT22;3168;51.684;6.954;2022-11-09T08:04:00;13.00;45.30
6270;DHT22;3168;51.684;6.954;2022-11-09T08:06:26;13.00;41.80
6270;DHT22;3168;51.684;6.954;2022-11-09T08:08:53;13.10;41.00
6270;DHT22;3168;51.684;6.954;2022-11-09T08:11:18;13.20;38.60
6270;DHT22;3168;51.684;6.954;2022-11-09T08:13:44;13.10;40.50
6270;DHT22;3168;51.684;6.954;2022-11-09T08:16:10;13.20;36.00
6270;DHT22;3168;51.684;6.954;2022-11-09T08:18:36;13.20;33.20
6270;DHT22;3168;51.684;6.954;2022-11-09T08:21:02;13.30;29.80
6270;DHT22;3168;51.684;6.954;2022-11-09T08:23:27;13.30;31.20
6270;DHT22;3168;51.684;6.954;2022-11-09T08:25:53;13.30;31.20
6270;DHT22;3168;51.684;6.954;2022-11-09T08:28:19;13.30;31.20
6270;DHT22;3168;51.684;6.954;2022-11-09T08:30:45;13.40;29.50
6270;DHT22;3168;51.684;6.954;2022-11-09T08:33:11;13.40;29.10
6270;DHT22;3168;51.684;6.954;2022-11-09T08:35:36;13.40;27.30
6270;DHT22;3168;51.684;6.954;2022-11-09T08:38:03;13.40;27.30
6270;DHT22;3168;51.684;6.954;2022-11-09T08:40:30;13.40;27.00
6270;DHT22;3168;51.684;6.954;2022-11-09T08:42:58;13.40;26.80
6270;DHT22;3168;51.684;6.954;2022-11-09T08:45:21;13.40;27.20
6270;DHT22;3168;51.684;6.954;2022-11-09T08:47:47;13.40;27.10
6270;DHT22;3168;51.684;6.954;2022-11-09T08:50:13;13.50;26.20
6270;DHT22;3168;51.684;6.954;2022-11-09T08:52:39;13.70;19.70
6270;DHT22;3168;51.684;6.954;2022-11-09T08:55:05;13.70;19.80
6270;DHT22;3168;51.684;6.954;2022-11-09T08:57:31;13.70;19.70
6270;DHT22;3168;51.684;6.954;2022-11-09T08:59:57;13.70;18.40
6270;DHT22;3168;51.684;6.954;2022-11-09T09:02:23;13.70;15.80
6270;DHT22;3168;51.684;6.954;2022-11-09T09:04:49;13.70;17.70
6270;DHT22;3168;51.684;6.954;2022-11-09T09:07:16;13.70;15.70
6270;DHT22;3168;51.684;6.954;2022-11-09T09:09:42;13.70;15.70
6270;DHT22;3168;51.684;6.954;2022-11-09T09:12:08;13.70;15.80
6270;DHT22;3168;51.684;6.954;2022-11-09T09:14:33;13.70;16.40
6270;DHT22;3168;51.684;6.954;2022-11-09T09:16:59;13.70;17.90
6270;DHT22;3168;51.684;6.954;2022-11-09T09:19:25;13.70;15.70
6270;DHT22;3168;51.684;6.954;2022-11-09T09:21:51;13.80;16.70
6270;DHT22;3168;51.684;6.954;2022-11-09T09:24:17;13.90;14.30
6270;DHT22;3168;51.684;6.954;2022-11-09T09:26:44;14.00;12.00
6270;DHT22;3168;51.684;6.954;2022-11-09T09:29:10;14.00;12.00
6270;DHT22;3168;51.684;6.954;2022-11-09T09:31:35;13.90;9.00
6270;DHT22;3168;51.684;6.954;2022-11-09T09:34:01;14.00;5.90
6270;DHT22;3168;51.684;6.954;2022-11-09T09:36:28;13.90;4.20
6270;DHT22;3168;51.684;6.954;2022-11-09T09:38:54;13.90;4.20
6270;DHT22;3168;51.684;6.954;2022-11-09T09:41:22;14.00;4.30
6270;DHT22;3168;51.684;6.954;2022-11-09T09:43:46;14.00;3.20
6270;DHT22;3168;51.684;6.954;2022-11-09T09:46:21;13.90;1.00
6270;DHT22;3168;51.684;6.954;2022-11-09T09:48:45;13.90;4.90
6270;DHT22;3168;51.684;6.954;2022-11-09T09:51:12;13.90;1.00
6270;DHT22;3168;51.684;6.954;2022-11-09T09:53:44;13.80;1.00
6270;DHT22;3168;51.684;6.954;2022-11-09T09:56:03;13.80;1.00
6270;DHT22;3168;51.684;6.954;2022-11-09T09:58:29;13.80;1.00
6270;DHT22;3168;51.684;6.954;2022-11-09T10:00:56;13.80;1.60
6270;DHT22;3168;51.684;6.954;2022-11-09T10:03:21;13.80;1.00
6270;DHT22;3168;51.684;6.954;2022-11-09T10:11:47;14.00;1.00
6270;DHT22;3168;51.684;6.954;2022-11-09T10:14:19;14.00;1.00
6270;DHT22;3168;51.684;6.954;2022-11-09T10:16:57;14.00;1.00
6270;DHT22;3168;51.684;6.954;2022-11-09T10:20:14;14.00;1.00
6270;DHT22;3168;51.684;6.954;2022-11-09T10:22:21;14.00;1.00
6270;DHT22;3168;51.684;6.954;2022-11-09T10:24:53;14.20;1.00
6270;DHT22;3168;51.684;6.954;2022-11-09T10:27:26;14.20;1.00
6270;DHT22;3168;51.684;6.954;2022-11-09T10:29:50;14.20;1.00
6270;DHT22;3168;51.684;6.954;2022-11-09T10:32:17;14.10;1.00
6270;DHT22;3168;51.684;6.954;2022-11-09T10:34:46;14.00;1.00
6270;DHT22;3168;51.684;6.954;2022-11-09T10:37:12;14.10;1.00
6270;DHT22;3168;51.684;6.954;2022-11-09T10:39:41;14.10;1.00
6270;DHT22;3168;51.684;6.954;2022-11-09T10:42:04;14.10;1.00
6270;DHT22;3168;51.684;6.954;2022-11-09T10:44:30;14.10;1.00
6270;DHT22;3168;51.684;6.954;2022-11-09T10:47:15;14.10;1.00
6270;DHT22;3168;51.684;6.954;2022-11-09T10:49:41;14.20;1.00
6270;DHT22;3168;51.684;6.954;2022-11-09T10:54:39;14.20;1.00
6270;DHT22;3168;51.684;6.954;2022-11-09T10:57:13;14.30;1.00
6270;DHT22;3168;51.684;6.954;2022-11-09T10:59:43;14.30;1.00
6270;DHT22;3168;51.684;6.954;2022-11-09T11:04:43;14.20;1.00
6270;DHT22;3168;51.684;6.954;2022-11-09T11:07:12;14.30;1.00
6270;DHT22;3168;51.684;6.954;2022-11-09T11:09:37;14.30;1.00
6270;DHT22;3168;51.684;6.954;2022-11-09T11:12:11;14.30;1.00
6270;DHT22;3168;51.684;6.954;2022-11-09T11:14:32;14.30;1.00
6270;DHT22;3168;51.684;6.954;2022-11-09T11:16:57;14.20;1.00
6270;DHT22;3168;51.684;6.954;2022-11-09T11:19:30;14.40;1.00
6270;DHT22;3168;51.684;6.954;2022-11-09T11:22:29;14.50;1.00
6270;DHT22;3168;51.684;6.954;2022-11-09T11:24:41;14.50;1.00
6270;DHT22;3168;51.684;6.954;2022-11-09T11:27:10;14.60;1.00
6270;DHT22;3168;51.684;6.954;2022-11-09T11:29:43;14.50;1.00
6270;DHT22;3168;51.684;6.954;2022-11-09T11:32:12;14.60;1.00
6270;DHT22;3168;51.684;6.954;2022-11-09T11:34:37;14.70;1.00
6270;DHT22;3168;51.684;6.954;2022-11-09T11:37:08;14.60;1.00
6270;DHT22;3168;51.684;6.954;2022-11-09T11:40:07;14.60;1.00
6270;DHT22;3168;51.684;6.954;2022-11-09T11:42:24;14.60;1.00
6270;DHT22;3168;51.684;6.954;2022-11-09T11:44:57;14.60;1.00
6270;DHT22;3168;51.684;6.954;2022-11-09T11:47:24;14.50;1.00
6270;DHT22;3168;51.684;6.954;2022-11-09T11:49:58;14.50;1.00
6270;DHT22;3168;51.684;6.954;2022-11-09T11:52:32;14.70;1.00
6270;DHT22;3168;51.684;6.954;2022-11-09T11:55:19;14.70;1.00
6270;DHT22;3168;51.684;6.954;2022-11-09T11:57:57;14.80;1.00
6270;DHT22;3168;51.684;6.954;2022-11-09T12:00:20;14.70;1.00
6270;DHT22;3168;51.684;6.954;2022-11-09T12:03:05;14.80;1.00
6270;DHT22;3168;51.684;6.954;2022-11-09T12:05:37;14.80;1.00
6270;DHT22;3168;51.684;6.954;2022-11-09T12:10:55;14.90;1.00
6270;DHT22;3168;51.684;6.954;2022-11-09T12:13:32;14.90;1.00
6270;DHT22;3168;51.684;6.954;2022-11-09T12:15:57;14.90;1.00
6270;DHT22;3168;51.684;6.954;2022-11-09T12:18:29;15.00;1.00
6270;DHT22;3168;51.684;6.954;2022-11-09T12:21:31;15.10;1.00
6270;DHT22;3168;51.684;6.954;2022-11-09T12:23:58;15.10;1.00
6270;DHT22;3168;51.684;6.954;2022-11-09T12:29:12;15.10;1.00
6270;DHT22;3168;51.684;6.954;2022-11-09T12:31:46;15.00;1.00
6270;DHT22;3168;51.684;6.954;2022-11-09T12:36:56;15.00;1.00
6270;DHT22;3168;51.684;6.954;2022-11-09T12:39:53;14.80;1.00
6270;DHT22;3168;51.684;6.954;2022-11-09T12:42:04;15.00;1.00
6270;DHT22;3168;51.684;6.954;2022-11-09T12:44:31;14.90;1.00
6270;DHT22;3168;51.684;6.954;2022-11-09T12:47:03;15.00;1.00
6270;DHT22;3168;51.684;6.954;2022-11-09T12:49:34;14.90;1.00
6270;DHT22;3168;51.684;6.954;2022-11-09T12:51:58;15.00;1.00
6270;DHT22;3168;51.684;6.954;2022-11-09T12:54:24;15.10;1.00
6270;DHT22;3168;51.684;6.954;2022-11-09T12:56:53;15.30;1.00
6270;DHT22;3168;51.684;6.954;2022-11-09T12:59:33;15.40;1.00
6270;DHT22;3168;51.684;6.954;2022-11-09T13:01:59;15.30;1.00
6270;DHT22;3168;51.684;6.954;2022-11-09T13:04:25;15.20;1.00
6270;DHT22;3168;51.684;6.954;2022-11-09T13:07:31;15.20;1.00
6270;DHT22;3168;51.684;6.954;2022-11-09T13:09:39;15.20;1.00
6270;DHT22;3168;51.684;6.954;2022-11-09T13:12:16;15.10;1.00
6270;DHT22;3168;51.684;6.954;2022-11-09T13:14:41;15.00;1.00
6270;DHT22;3168;51.684;6.954;2022-11-09T13:17:54;14.90;1.00
6270;DHT22;3168;51.684;6.954;2022-11-09T13:20:00;14.80;1.00
6270;DHT22;3168;51.684;6.954;2022-11-09T13:22:56;14.70;1.00
6270;DHT22;3168;51.684;6.954;2022-11-09T13:25:46;14.70;1.00
6270;DHT22;3168;51.684;6.954;2022-11-09T13:30:58;14.70;1.00
6270;DHT22;3168;51.684;6.954;2022-11-09T13:33:27;14.70;1.00
6270;DHT22;3168;51.684;6.954;2022-11-09T13:35:56;14.70;1.00
6270;DHT22;3168;51.684;6.954;2022-11-09T13:38:23;14.70;1.00
6270;DHT22;3168;51.684;6.954;2022-11-09T13:40:50;14.70;1.00
6270;DHT22;3168;51.684;6.954;2022-11-09T13:43:27;14.70;1.00
6270;DHT22;3168;51.684;6.954;2022-11-09T13:46:00;14.60;1.00
6270;DHT22;3168;51.684;6.954;2022-11-09T13:48:33;14.60;1.00
6270;DHT22;3168;51.684;6.954;2022-11-09T13:50:59;14.70;1.00
6270;DHT22;3168;51.684;6.954;2022-11-09T13:53:30;14.70;1.00
6270;DHT22;3168;51.684;6.954;2022-11-09T13:55:54;14.60;1.00
6270;DHT22;3168;51.684;6.954;2022-11-09T13:58:28;14.60;1.00
6270;DHT22;3168;51.684;6.954;2022-11-09T14:00:53;14.60;1.00
6270;DHT22;3168;51.684;6.954;2022-11-09T14:03:22;14.50;1.00
6270;DHT22;3168;51.684;6.954;2022-11-09T14:05:50;14.50;1.00
6270;DHT22;3168;51.684;6.954;2022-11-09T14:08:23;14.50;1.00
6270;DHT22;3168;51.684;6.954;2022-11-09T14:10:58;14.50;1.00
6270;DHT22;3168;51.684;6.954;2022-11-09T14:16:19;14.40;1.00
6270;DHT22;3168;51.684;6.954;2022-11-09T14:19:05;14.40;1.00
6270;DHT22;3168;51.684;6.954;2022-11-09T14:21:37;14.30;1.00
6270;DHT22;3168;51.684;6.954;2022-11-09T14:24:07;14.30;1.00
6270;DHT22;3168;51.684;6.954;2022-11-09T14:26:29;14.30;1.00
6270;DHT22;3168;51.684;6.954;2022-11-09T14:28:54;14.30;1.00
6270;DHT22;3168;51.684;6.954;2022-11-09T14:31:29;14.20;1.00
6270;DHT22;3168;51.684;6.954;2022-11-09T14:34:00;14.20;1.00
6270;DHT22;3168;51.684;6.954;2022-11-09T14:36:26;14.10;1.00
6270;DHT22;3168;51.684;6.954;2022-11-09T14:38:51;14.10;1.00
6270;DHT22;3168;51.684;6.954;2022-11-09T14:41:19;14.10;1.00
6270;DHT22;3168;51.684;6.954;2022-11-09T14:43:44;14.10;1.00
6270;DHT22;3168;51.684;6.954;2022-11-09T14:46:19;14.00;1.00
6270;DHT22;3168;51.684;6.954;2022-11-09T14:48:50;14.00;1.00
6270;DHT22;3168;51.684;6.954;2022-11-09T14:51:16;13.90;1.00
6270;DHT22;3168;51.684;6.954;2022-11-09T14:53:42;13.90;1.00
6270;DHT22;3168;51.684;6.954;2022-11-09T14:56:09;13.80;1.00
6270;DHT22;3168;51.684;6.954;2022-11-09T14:58:34;13.80;1.00
6270;DHT22;3168;51.684;6.954;2022-11-09T15:01:24;13.70;1.00
6270;DHT22;3168;51.684;6.954;2022-11-09T15:06:29;13.70;1.00
6270;DHT22;3168;51.684;6.954;2022-11-09T15:08:55;13.70;1.00
6270;DHT22;3168;51.684;6.954;2022-11-09T15:11:24;13.70;1.00
6270;DHT22;3168;51.684;6.954;2022-11-09T15:13:46;13.70;1.00
6270;DHT22;3168;51.684;6.954;2022-11-09T15:16:21;13.60;1.00
6270;DHT22;3168;51.684;6.954;2022-11-09T15:18:46;13.60;1.00
6270;DHT22;3168;51.684;6.954;2022-11-09T15:21:17;13.60;1.00
6270;DHT22;3168;51.684;6.954;2022-11-09T15:23:43;13.60;1.00
6270;DHT22;3168;51.684;6.954;2022-11-09T15:26:25;13.70;1.00
6270;DHT22;3168;51.684;6.954;2022-11-09T15:28:49;13.70;1.00
6270;DHT22;3168;51.684;6.954;2022-11-09T15:31:15;13.60;1.00
6270;DHT22;3168;51.684;6.954;2022-11-09T15:33:48;13.60;1.00
6270;DHT22;3168;51.684;6.954;2022-11-09T15:36:23;13.50;1.00
6270;DHT22;3168;51.684;6.954;2022-11-09T15:39:00;13.50;1.00
6270;DHT22;3168;51.684;6.954;2022-11-09T15:41:23;13.50;1.00
6270;DHT22;3168;51.684;6.954;2022-11-09T15:43:48;13.40;1.00
6270;DHT22;3168;51.684;6.954;2022-11-09T15:46:17;13.40;1.00
6270;DHT22;3168;51.684;6.954;2022-11-09T15:48:41;13.40;1.00
6270;DHT22;3168;51.684;6.954;2022-11-09T15:51:06;13.40;1.00
6270;DHT22;3168;51.684;6.954;2022-11-09T15:53:32;13.40;1.00
6270;DHT22;3168;51.684;6.954;2022-11-09T15:55:59;13.40;1.00
6270;DHT22;3168;51.684;6.954;2022-11-09T15:58:24;13.30;1.00
6270;DHT22;3168;51.684;6.954;2022-11-09T16:00:50;13.30;1.00
6270;DHT22;3168;51.684;6.954;2022-11-09T16:03:16;13.30;1.00
6270;DHT22;3168;51.684;6.954;2022-11-09T16:05:42;13.20;1.00
6270;DHT22;3168;51.684;6.954;2022-11-09T16:08:08;13.20;1.00
6270;DHT22;3168;51.684;6.954;2022-11-09T16:10:34;13.20;1.00
6270;DHT22;3168;51.684;6.954;2022-11-09T16:13:00;13.20;1.00
6270;DHT22;3168;51.684;6.954;2022-11-09T16:15:25;13.10;1.00
6270;DHT22;3168;51.684;6.954;2022-11-09T16:17:51;13.00;1.00
6270;DHT22;3168;51.684;6.954;2022-11-09T16:20:18;13.00;1.00
6270;DHT22;3168;51.684;6.954;2022-11-09T16:22:44;12.90;1.00
6270;DHT22;3168;51.684;6.954;2022-11-09T16:25:10;12.90;1.00
6270;DHT22;3168;51.684;6.954;2022-11-09T16:27:36;12.90;1.00
6270;DHT22;3168;51.684;6.954;2022-11-09T16:30:02;12.80;1.00
6270;DHT22;3168;51.684;6.954;2022-11-09T16:32:28;12.80;1.00
6270;DHT22;3168;51.684;6.954;2022-11-09T16:34:53;12.80;1.00
6270;DHT22;3168;51.684;6.954;2022-11-09T16:37:20;12.80;1.00
6270;DHT22;3168;51.684;6.954;2022-11-09T16:39:46;12.80;1.00
6270;DHT22;3168;51.684;6.954;2022-11-09T16:42:11;12.80;1.00